Aérodrome :
LOGIN :

S'inscrire | Disclaimer

   EN    FR    IT 

 










Légende :    VFR   VFR Marginal   IFR   IFR Intensif   IFR Très Intensif
Visi : 
Plafond : 
>= 8 km
>= 3000ft
5 à 8 km
1000 à 3000 ft
1500m à 5 km
500 à 1000 ft
800 à 1500m
200 à 500 ft
< 800m
< 200 ft
Symboles :   Orages  Brouillard  Fortes neiges  Fortes précipitations  Vent > 20 kt
SIGMETs :   Divers  Orages  Givrage  Turbulence  Onde Orograph.  Cendres Volcan.






- Altitude de l'aérodrome : 1302 ft
- Code IATA : GNB


LFLS - Grenoble / St. Geoirs

DERNIER METAR :
  • 290500Z AUTO VRB04KT 9999 FEW049 16/14 Q1018 NOSIG

METARs EXPIRÉS :
  • 290430Z AUTO VRB02KT 9999 SCT049 BKN056 15/14 Q1018 NOSIG
  • 290400Z AUTO VRB02KT 9999 FEW044 BKN054 15/14 Q1018 NOSIG
  • 290330Z AUTO VRB02KT 9999 SCT044 BKN054 15/14 Q1017 NOSIG
  • 290300Z AUTO 13003KT 090V170 9999 FEW045 BKN052 15/14 Q1017 NOSIG
  • 290230Z AUTO 12003KT 080V200 9999 BKN054 BKN220 15/14 Q1017

TAF TAF LFLS
Valide du 29 à 03h jusqu'au 30 à 03h UTC


290200Z 2903/3003 VRB02KT 9999 BKN040
TEMPO 2915/2919 FEW070TCU
ATIS : +33 4 76 65 55 89



MET'MAP, la Météo Aéronautique d'un coup d'oeil ! - Copyright ORBIFLY Décembre 2007 - Disclaimer

ORBIFLY MET'MAP TEAM :

Programmation & Développement : Alexandra Zaïnal
Sur une idée originale de : Baudouin d'Aumeries
Assistance à la programmation : Marc-Olivier Méhu
Soutien technique & logistique : Manuel Goepfert

Contact : metmap@orbifly.com




SOURCES & CREDITS :

   NOAA